Happy Valentine's Day! 

Flight Track Log - Related Links

Times and Time Zones

All times are in EDT time to prevent confusion due to time zone crossing. See the UAL4295 flight status page for this flight to view local times or setup timezone preferences in your user account.


Time Position Orientation Groundspeed Altitude Reporting Facility
EDT Latitude Longitude Course Direction KTS MPH feet Rate Location/Type
Tue 06:49:38 PM 43.0994 -77.6942 281° West 142 163 1,300  Level Cleveland Center
Tue 06:50:47 PM 43.0581 -77.7269 210° Southwest 170 196 2,900 1,899 Climbing Cleveland Center
Tue 06:50:57 PM 43.0433 -77.7458 223° Southwest 210 242 3,800 2,129 Climbing Cleveland Center
Tue 06:51:49 PM 43.0469 -77.7947 276° West 210 242 5,100 1,842 Climbing Cleveland Center
Tue 06:52:51 PM 43.0739 -77.8992 289° West 242 278 7,300 2,032 Climbing Cleveland Center
Tue 06:53:53 PM 43.0958 -77.9931 288° West 256 295 9,300 1,548 Climbing Cleveland Center
Tue 06:54:55 PM 43.1200 -78.0950 288° West 280 322 10,500 1,152 Climbing Cleveland Center
Tue 06:55:00 PM 43.1929 -78.3835 281° West  Level FlightAware Approximate
Tue 06:55:58 PM 43.1469 -78.2081 288° West 310 357 11,700  Level Cleveland Center
Tue 06:57:00 PM 43.1742 -78.3258 288° West 321 369 13,200 1,500 Climbing Cleveland Center
Tue 06:58:02 PM 43.2075 -78.4697 288° West 328 377 14,800 1,306 Climbing Cleveland Center
Tue 06:59:04 PM 43.2028 -78.6008 267° West 342 394 15,900 1,016 Climbing Cleveland Center
Tue 07:00:06 PM 43.1956 -78.7325 266° West 345 397 16,900 871 Climbing Cleveland Center
Tue 07:01:08 PM 43.1878 -78.8656 265° West 350 403 17,700 720 Climbing Cleveland Center
Tue 07:02:11 PM 43.1817 -79.0006 266° West 353 406 18,400 840 Climbing Cleveland Center
Tue 07:02:48 PM 43.1744 -79.1111 265° West 361 415 19,100 1,116 Climbing Cleveland Center
Tue 07:03:37 PM 43.1667 -79.2000 263° West 360 414 20,000 1,101 Climbing Toronto Center
Tue 07:04:37 PM 43.1500 -79.3333 260° West 370 426 21,100 1,050 Climbing Toronto Center
Tue 07:05:37 PM 43.1500 -79.4667 270° West 370 426 22,100 1,000 Climbing Toronto Center
Tue 07:06:37 PM 43.1667 -79.6167 279° West 370 426 23,100 1,050 Climbing Toronto Center
Tue 07:07:37 PM 43.1833 -79.7500 280° West 360 414 24,200 1,000 Climbing Toronto Center
Tue 07:08:37 PM 43.2167 -79.8833 289° West 360 414 25,100 850 Climbing Toronto Center
Tue 07:09:37 PM 43.2333 -80.0000 281° West 360 414 25,900 450 Climbing Toronto Center
Tue 07:10:37 PM 43.2667 -80.1667 285° West 370 426 26,000 50 Climbing Toronto Center
Tue 07:11:37 PM 43.2833 -80.3000 280° West 390 449 26,000  Level Toronto Center
Tue 07:12:37 PM 43.3167 -80.4500 287° West 410 472 26,000 -50 Level Toronto Center
Tue 07:13:37 PM 43.3333 -80.6167 278° West 420 483 25,900  Descending Toronto Center
Tue 07:14:37 PM 43.3667 -80.7500 289° West 410 472 26,000  Climbing Toronto Center
Tue 07:15:37 PM 43.3833 -80.9167 278° West 410 472 25,900 -50 Descending Toronto Center
Tue 07:16:37 PM 43.3833 -81.0500 270° West 400 460 25,900 50 Level Toronto Center
Tue 07:17:37 PM 43.4000 -81.2167 278° West 400 460 26,000 100 Climbing Toronto Center
Tue 07:18:37 PM 43.4000 -81.3833 270° West 410 472 26,100 50 Climbing Toronto Center
Tue 07:19:37 PM 43.4167 -81.5333 279° West 420 483 26,100 -50 Level Toronto Center
Tue 07:20:37 PM 43.4000 -81.7000 262° West 420 483 26,000 -100 Descending Toronto Center
Tue 07:21:37 PM 43.4000 -81.8667 270° West 420 483 25,900  Descending Toronto Center
Tue 07:22:37 PM 43.3833 -82.0167 261° West 410 472 26,000 105 Climbing Toronto Center
Tue 07:23:31 PM 43.3881 -82.1372 273° West 404 465 26,100  Climbing Cleveland Center
Tue 07:24:33 PM 43.3544 -82.3103 255° West 397 457 26,000 -95 Descending Cleveland Center
Tue 07:25:37 PM 43.3167 -82.4500 250° West 390 449 25,900  Descending Toronto Center
Tue 07:26:37 PM 43.2833 -82.5833 251° West 390 449 26,000 49 Climbing Toronto Center
Tue 07:27:39 PM 43.2681 -82.7456 263° West 402 463 26,000  Level Cleveland Center
Tue 07:28:40 PM 43.2381 -82.8947 255° West 407 468 26,000  Level Cleveland Center
Tue 07:29:42 PM 43.2092 -83.0453 255° West 409 471 26,000  Level Cleveland Center
Tue 07:30:44 PM 43.1717 -83.2247 254° West 411 473 26,000 -48 Level Cleveland Center
Tue 07:31:46 PM 43.1397 -83.3742 254° West 411 473 25,900  Descending Cleveland Center
Tue 07:32:48 PM 43.1106 -83.5225 255° West 409 471 26,000 49 Climbing Cleveland Center
Tue 07:33:49 PM 43.0792 -83.6708 254° West 408 470 26,000  Level Cleveland Center
Tue 07:34:51 PM 43.0478 -83.8178 254° West 408 470 26,000 48 Level Cleveland Center
Tue 07:35:53 PM 43.0161 -83.9653 254° West 408 470 26,100  Climbing Cleveland Center
Tue 07:36:55 PM 42.9786 -84.1425 254° West 407 468 26,000 -49 Descending Cleveland Center
Tue 07:37:56 PM 42.9469 -84.2889 254° West 407 468 26,000  Level Cleveland Center
Tue 07:38:58 PM 42.9169 -84.4336 254° West 408 470 26,000  Level Cleveland Center
Tue 07:40:00 PM 42.8847 -84.5794 253° West 405 466 26,000  Level Cleveland Center
Tue 07:41:01 PM 42.8681 -84.7336 262° West 408 470 26,000  Level Cleveland Center
Tue 07:42:03 PM 42.8519 -84.8850 262° West 408 470 26,000  Level Chicago Center
Tue 07:43:05 PM 42.8336 -85.0667 262° West 407 468 26,000  Level Chicago Center
Tue 07:44:06 PM 42.8172 -85.2194 262° West 405 466 26,000  Level Cleveland Center
Tue 07:45:08 PM 42.8008 -85.3725 262° West 405 466 26,000  Level Cleveland Center
Tue 07:46:10 PM 42.7819 -85.5250 260° West 406 467 26,000  Level Cleveland Center
Tue 07:47:11 PM 42.7544 -85.6764 256° West 406 467 26,000 -98 Level Cleveland Center
Tue 07:48:13 PM 42.7272 -85.8281 256° West 407 468 25,800 -1,113 Descending Cleveland Center
Tue 07:49:15 PM 42.6992 -85.9792 256° West 407 468 23,700 -2,220 Descending Cleveland Center
Tue 07:50:20 PM 42.6667 -86.1581 256° West 407 468 21,100 -1,748 Descending Chicago Center
Tue 07:51:22 PM 42.6406 -86.3000 256° West 394 453 20,000 -677 Descending Chicago Center
Tue 07:52:24 PM 42.6142 -86.4336 255° West 371 427 19,700 -1,016 Descending Chicago Center
Tue 07:53:26 PM 42.5894 -86.5675 256° West 370 426 17,900 -1,839 Descending Chicago Center
Tue 07:54:28 PM 42.5661 -86.6978 256° West 356 410 15,900 -1,935 Descending Chicago Center
Tue 07:55:30 PM 42.5353 -86.8211 251° West 348 400 13,900 -1,790 Descending Chicago Center
Tue 07:56:32 PM 42.5019 -86.9456 250° West 351 404 12,200 -1,790 Descending Chicago Center
Tue 07:57:34 PM 42.4619 -87.0819 248° West 320 368 10,200 -1,452 Descending Chicago Center
Tue 07:58:36 PM 42.4364 -87.1792 250° West 276 318 9,200 -714 Descending Chicago Center
Tue 08:00:22 PM 42.3167 -87.2500 204° Southwest 281 323 8,200 -802 Descending Chicago TRACON
Tue 08:01:43 PM 42.2233 -87.3081 205° Southwest 274 315 6,700 -1,091 Descending Chicago Center
Tue 08:02:45 PM 42.1531 -87.3475 203° Southwest 274 315 5,600 -823 Descending Chicago Center
Tue 08:03:47 PM 42.0842 -87.3833 201° Southwest 266 306 5,000 -339 Descending Chicago Center
Tue 08:04:49 PM 42.0094 -87.4106 195° South 267 307 4,900  Descending Chicago Center
Tue 08:05:51 PM 41.9844 -87.5017 250° West 262 302 5,000 -48 Climbing Chicago Center
Tue 08:06:53 PM 41.9844 -87.6028 270° West 253 291 4,800 -726 Descending Chicago Center
Tue 08:07:55 PM 41.9839 -87.6856 270° West 229 264 3,500 -1,210 Descending Chicago Center
Tue 08:08:57 PM 41.9844 -87.7722 271° West 215 247 2,300 -935 Descending Chicago Center
Tue 08:10:29 PM 41.9833 -87.8500 269° West 148 170 1,100 -720 Descending Chicago TRACON
Tue 08:11:02 PM 41.9842 -87.8819 272° West 150 173 800 -545 Descending Chicago Center

Login

Don't have an account? Register now (free) for customized features, flight alerts, and more!